sensor_id;sensor_type;location;lat;lon;timestamp;pressure;altitude;pressure_sealevel;temperature;humidity
45793;BME280;31495;42.740;22.908;2022-08-03T00:00:41;93200.78;;;17.03;63.33
45793;BME280;31495;42.740;22.908;2022-08-03T00:01:41;93189.72;;;16.90;63.34
45793;BME280;31495;42.740;22.908;2022-08-03T00:02:41;93202.38;;;17.04;63.66
45793;BME280;31495;42.740;22.908;2022-08-03T00:03:40;93197.59;;;16.96;63.45
45793;BME280;31495;42.740;22.908;2022-08-03T00:04:40;93221.28;;;17.16;63.57
45793;BME280;31495;42.740;22.908;2022-08-03T00:05:39;93216.75;;;17.06;63.52
45793;BME280;31495;42.740;22.908;2022-08-03T00:06:39;93228.31;;;17.11;63.70
45793;BME280;31495;42.740;22.908;2022-08-03T00:07:38;93228.03;;;17.07;63.82
45793;BME280;31495;42.740;22.908;2022-08-03T00:08:39;93193.06;;;16.86;63.82
45793;BME280;31495;42.740;22.908;2022-08-03T00:09:38;93198.34;;;16.91;63.64
45793;BME280;31495;42.740;22.908;2022-08-03T00:10:38;93203.66;;;17.01;63.16
45793;BME280;31495;42.740;22.908;2022-08-03T00:11:37;93206.47;;;16.95;63.41
45793;BME280;31495;42.740;22.908;2022-08-03T00:12:37;93208.25;;;16.89;63.53
45793;BME280;31495;42.740;22.908;2022-08-03T00:13:36;93192.91;;;16.76;64.02
45793;BME280;31495;42.740;22.908;2022-08-03T00:14:36;93187.09;;;16.68;63.92
45793;BME280;31495;42.740;22.908;2022-08-03T00:15:35;93215.69;;;16.80;63.92
45793;BME280;31495;42.740;22.908;2022-08-03T00:16:35;93225.19;;;16.86;64.21
45793;BME280;31495;42.740;22.908;2022-08-03T00:17:34;93224.19;;;16.87;64.25
45793;BME280;31495;42.740;22.908;2022-08-03T00:18:33;93224.47;;;16.91;64.07
45793;BME280;31495;42.740;22.908;2022-08-03T00:19:33;93209.97;;;16.83;64.17
45793;BME280;31495;42.740;22.908;2022-08-03T00:20:34;93223.38;;;16.87;64.20
45793;BME280;31495;42.740;22.908;2022-08-03T00:21:33;93187.34;;;16.67;64.27
45793;BME280;31495;42.740;22.908;2022-08-03T00:22:36;93190.97;;;16.66;64.46
45793;BME280;31495;42.740;22.908;2022-08-03T00:23:36;93193.34;;;16.67;64.21
45793;BME280;31495;42.740;22.908;2022-08-03T00:24:36;93189.38;;;16.60;64.33
45793;BME280;31495;42.740;22.908;2022-08-03T00:25:36;93214.38;;;16.78;64.45
45793;BME280;31495;42.740;22.908;2022-08-03T00:26:36;93218.56;;;16.79;64.29
45793;BME280;31495;42.740;22.908;2022-08-03T00:27:36;93208.84;;;16.74;64.32
45793;BME280;31495;42.740;22.908;2022-08-03T00:28:35;93192.31;;;16.68;64.26
45793;BME280;31495;42.740;22.908;2022-08-03T00:29:35;93210.19;;;16.77;64.62
45793;BME280;31495;42.740;22.908;2022-08-03T00:30:35;93167.56;;;16.49;64.52
45793;BME280;31495;42.740;22.908;2022-08-03T00:31:34;93214.13;;;16.79;64.33
45793;BME280;31495;42.740;22.908;2022-08-03T00:32:34;93200.94;;;16.69;64.48
45793;BME280;31495;42.740;22.908;2022-08-03T00:33:33;93221.41;;;16.77;64.32
45793;BME280;31495;42.740;22.908;2022-08-03T00:34:33;93194.84;;;16.58;64.46
45793;BME280;31495;42.740;22.908;2022-08-03T00:35:32;93215.84;;;16.68;64.84
45793;BME280;31495;42.740;22.908;2022-08-03T00:36:32;93176.94;;;16.45;64.37
45793;BME280;31495;42.740;22.908;2022-08-03T00:37:32;93196.09;;;16.56;64.42
45793;BME280;31495;42.740;22.908;2022-08-03T00:38:31;93218.78;;;16.77;64.64
45793;BME280;31495;42.740;22.908;2022-08-03T00:39:31;93211.41;;;16.69;64.62
45793;BME280;31495;42.740;22.908;2022-08-03T00:40:30;93201.03;;;16.52;64.73
45793;BME280;31495;42.740;22.908;2022-08-03T00:41:30;93202.31;;;16.49;64.80
45793;BME280;31495;42.740;22.908;2022-08-03T00:42:29;93215.25;;;16.61;64.89
45793;BME280;31495;42.740;22.908;2022-08-03T00:43:29;93217.91;;;16.66;64.27
45793;BME280;31495;42.740;22.908;2022-08-03T00:44:28;93172.44;;;16.40;64.34
45793;BME280;31495;42.740;22.908;2022-08-03T00:45:34;93199.25;;;16.58;64.23
45793;BME280;31495;42.740;22.908;2022-08-03T00:46:34;93176.03;;;16.34;64.64
45793;BME280;31495;42.740;22.908;2022-08-03T00:47:33;93216.41;;;16.48;64.67
45793;BME280;31495;42.740;22.908;2022-08-03T00:48:32;93192.72;;;16.33;65.34
45793;BME280;31495;42.740;22.908;2022-08-03T00:49:32;93217.06;;;16.39;65.24
45793;BME280;31495;42.740;22.908;2022-08-03T00:50:34;93214.72;;;16.37;65.40
45793;BME280;31495;42.740;22.908;2022-08-03T00:51:34;93169.41;;;16.04;65.89
45793;BME280;31495;42.740;22.908;2022-08-03T00:52:34;93215.31;;;16.22;65.74
45793;BME280;31495;42.740;22.908;2022-08-03T00:53:35;93174.56;;;15.99;65.62
45793;BME280;31495;42.740;22.908;2022-08-03T00:54:36;93197.75;;;16.17;65.65
45793;BME280;31495;42.740;22.908;2022-08-03T00:55:36;93195.63;;;16.14;65.69
45793;BME280;31495;42.740;22.908;2022-08-03T00:56:36;93190.34;;;16.09;65.66
45793;BME280;31495;42.740;22.908;2022-08-03T00:57:36;93215.06;;;16.24;65.56
45793;BME280;31495;42.740;22.908;2022-08-03T00:58:36;93208.03;;;16.24;65.45
45793;BME280;31495;42.740;22.908;2022-08-03T00:59:35;93221.13;;;16.29;65.50
45793;BME280;31495;42.740;22.908;2022-08-03T01:00:38;93221.69;;;16.31;65.33
45793;BME280;31495;42.740;22.908;2022-08-03T01:01:38;93189.88;;;16.12;65.42
45793;BME280;31495;42.740;22.908;2022-08-03T01:02:38;93215.97;;;16.34;65.32
45793;BME280;31495;42.740;22.908;2022-08-03T01:03:38;93187.03;;;16.14;65.61
45793;BME280;31495;42.740;22.908;2022-08-03T01:04:38;93208.03;;;16.24;65.60
45793;BME280;31495;42.740;22.908;2022-08-03T01:05:52;93220.13;;;16.30;65.36
45793;BME280;31495;42.740;22.908;2022-08-03T01:08:14;93222.00;;;16.35;65.32
45793;BME280;31495;42.740;22.908;2022-08-03T01:09:50;93216.22;;;16.33;65.23
45793;BME280;31495;42.740;22.908;2022-08-03T01:10:59;93218.28;;;16.31;65.19
45793;BME280;31495;42.740;22.908;2022-08-03T01:12:14;93218.75;;;16.28;65.41
45793;BME280;31495;42.740;22.908;2022-08-03T01:13:47;93189.25;;;16.05;65.53
45793;BME280;31495;42.740;22.908;2022-08-03T01:14:56;93181.28;;;15.95;65.42
45793;BME280;31495;42.740;22.908;2022-08-03T01:16:25;93221.25;;;16.17;65.56
45793;BME280;31495;42.740;22.908;2022-08-03T01:17:32;93188.34;;;15.94;65.63
45793;BME280;31495;42.740;22.908;2022-08-03T01:19:39;93212.59;;;16.12;65.79
45793;BME280;31495;42.740;22.908;2022-08-03T01:20:44;93206.19;;;16.03;65.76
45793;BME280;31495;42.740;22.908;2022-08-03T01:24:49;93212.44;;;16.02;66.00
45793;BME280;31495;42.740;22.908;2022-08-03T01:30:05;93197.00;;;15.78;66.53
45793;BME280;31495;42.740;22.908;2022-08-03T01:31:07;93173.25;;;15.62;66.86
45793;BME280;31495;42.740;22.908;2022-08-03T01:32:18;93188.25;;;15.72;66.87
45793;BME280;31495;42.740;22.908;2022-08-03T01:33:24;93205.44;;;15.85;66.94
45793;BME280;31495;42.740;22.908;2022-08-03T01:34:29;93180.84;;;15.64;67.28
45793;BME280;31495;42.740;22.908;2022-08-03T01:35:41;93208.75;;;15.80;67.30
45793;BME280;31495;42.740;22.908;2022-08-03T01:36:50;93201.19;;;15.79;66.73
45793;BME280;31495;42.740;22.908;2022-08-03T01:37:55;93177.38;;;15.58;66.82
45793;BME280;31495;42.740;22.908;2022-08-03T01:39:01;93152.81;;;15.37;67.43
45793;BME280;31495;42.740;22.908;2022-08-03T01:40:01;93204.66;;;15.68;67.71
45793;BME280;31495;42.740;22.908;2022-08-03T01:41:03;93207.72;;;15.65;67.66
45793;BME280;31495;42.740;22.908;2022-08-03T01:42:05;93183.25;;;15.49;67.54
45793;BME280;31495;42.740;22.908;2022-08-03T01:43:09;93164.84;;;15.38;67.62
45793;BME280;31495;42.740;22.908;2022-08-03T01:44:11;93194.63;;;15.59;67.71
45793;BME280;31495;42.740;22.908;2022-08-03T01:45:13;93210.88;;;15.67;67.51
45793;BME280;31495;42.740;22.908;2022-08-03T01:46:14;93202.22;;;15.61;67.64
45793;BME280;31495;42.740;22.908;2022-08-03T01:47:14;93190.34;;;15.53;67.60
45793;BME280;31495;42.740;22.908;2022-08-03T01:48:18;93210.41;;;15.70;67.27
45793;BME280;31495;42.740;22.908;2022-08-03T01:49:17;93185.13;;;15.53;67.25
45793;BME280;31495;42.740;22.908;2022-08-03T01:50:23;93206.53;;;15.55;67.74
45793;BME280;31495;42.740;22.908;2022-08-03T01:51:25;93204.81;;;15.61;67.53
45793;BME280;31495;42.740;22.908;2022-08-03T01:52:27;93194.44;;;15.49;67.62
45793;BME280;31495;42.740;22.908;2022-08-03T01:53:30;93198.47;;;15.57;67.65
45793;BME280;31495;42.740;22.908;2022-08-03T01:54:35;93198.56;;;15.62;67.39
45793;BME280;31495;42.740;22.908;2022-08-03T01:55:38;93186.63;;;15.49;67.45
45793;BME280;31495;42.740;22.908;2022-08-03T01:56:39;93213.25;;;15.68;67.22
45793;BME280;31495;42.740;22.908;2022-08-03T01:57:39;93188.53;;;15.54;67.62
45793;BME280;31495;42.740;22.908;2022-08-03T01:58:43;93201.56;;;15.54;67.68
45793;BME280;31495;42.740;22.908;2022-08-03T01:59:46;93221.31;;;15.67;67.59
45793;BME280;31495;42.740;22.908;2022-08-03T02:00:48;93207.16;;;15.62;67.40
45793;BME280;31495;42.740;22.908;2022-08-03T02:01:48;93191.38;;;15.52;67.44
45793;BME280;31495;42.740;22.908;2022-08-03T02:02:49;93193.50;;;15.55;67.71
45793;BME280;31495;42.740;22.908;2022-08-03T02:03:51;93205.91;;;15.65;67.63
45793;BME280;31495;42.740;22.908;2022-08-03T02:04:53;93187.34;;;15.44;67.53
45793;BME280;31495;42.740;22.908;2022-08-03T02:05:56;93211.06;;;15.60;67.56
45793;BME280;31495;42.740;22.908;2022-08-03T02:06:57;93178.25;;;15.47;67.81
45793;BME280;31495;42.740;22.908;2022-08-03T02:07:58;93179.84;;;15.48;67.38
45793;BME280;31495;42.740;22.908;2022-08-03T02:09:00;93186.81;;;15.59;67.32
45793;BME280;31495;42.740;22.908;2022-08-03T02:10:00;93207.25;;;15.68;67.66
45793;BME280;31495;42.740;22.908;2022-08-03T02:11:01;93200.38;;;15.61;67.54
45793;BME280;31495;42.740;22.908;2022-08-03T02:12:01;93202.34;;;15.54;67.73
45793;BME280;31495;42.740;22.908;2022-08-03T02:13:02;93208.22;;;15.61;67.68
45793;BME280;31495;42.740;22.908;2022-08-03T02:14:04;93186.16;;;15.52;67.42
45793;BME280;31495;42.740;22.908;2022-08-03T02:15:06;93188.22;;;15.50;67.48
45793;BME280;31495;42.740;22.908;2022-08-03T02:16:06;93201.34;;;15.55;67.77
45793;BME280;31495;42.740;22.908;2022-08-03T02:17:08;93207.09;;;15.57;67.79
45793;BME280;31495;42.740;22.908;2022-08-03T02:18:08;93204.47;;;15.57;67.67
45793;BME280;31495;42.740;22.908;2022-08-03T02:19:10;93207.25;;;15.51;67.49
45793;BME280;31495;42.740;22.908;2022-08-03T02:20:10;93206.31;;;15.40;67.65
45793;BME280;31495;42.740;22.908;2022-08-03T02:21:13;93184.66;;;15.22;67.96
45793;BME280;31495;42.740;22.908;2022-08-03T02:22:14;93197.53;;;15.29;68.30
45793;BME280;31495;42.740;22.908;2022-08-03T02:23:14;93202.53;;;15.31;68.37
45793;BME280;31495;42.740;22.908;2022-08-03T02:24:14;93201.91;;;15.23;68.59
45793;BME280;31495;42.740;22.908;2022-08-03T02:25:14;93197.31;;;15.14;68.57
45793;BME280;31495;42.740;22.908;2022-08-03T02:26:16;93194.84;;;15.07;68.93
45793;BME280;31495;42.740;22.908;2022-08-03T02:27:23;93204.47;;;15.06;69.16
45793;BME280;31495;42.740;22.908;2022-08-03T02:28:44;93199.97;;;15.02;69.37
45793;BME280;31495;42.740;22.908;2022-08-03T02:29:48;93202.69;;;15.07;69.49
45793;BME280;31495;42.740;22.908;2022-08-03T02:30:53;93196.88;;;15.05;69.43
45793;BME280;31495;42.740;22.908;2022-08-03T02:31:56;93193.13;;;15.13;69.32
45793;BME280;31495;42.740;22.908;2022-08-03T02:32:58;93201.47;;;15.15;69.00
45793;BME280;31495;42.740;22.908;2022-08-03T02:34:01;93183.06;;;15.04;68.93
45793;BME280;31495;42.740;22.908;2022-08-03T02:35:05;93149.06;;;14.94;68.49
45793;BME280;31495;42.740;22.908;2022-08-03T02:36:05;93190.19;;;15.26;68.32
45793;BME280;31495;42.740;22.908;2022-08-03T02:37:06;93196.69;;;15.23;68.38
45793;BME280;31495;42.740;22.908;2022-08-03T02:38:09;93179.00;;;15.09;68.32
45793;BME280;31495;42.740;22.908;2022-08-03T02:39:11;93198.09;;;15.14;67.73
45793;BME280;31495;42.740;22.908;2022-08-03T02:40:13;93192.56;;;15.11;68.27
45793;BME280;31495;42.740;22.908;2022-08-03T02:41:16;93194.84;;;15.07;68.08
45793;BME280;31495;42.740;22.908;2022-08-03T02:42:17;93204.91;;;15.15;68.07
45793;BME280;31495;42.740;22.908;2022-08-03T02:43:20;93205.69;;;15.16;67.99
45793;BME280;31495;42.740;22.908;2022-08-03T02:44:23;93205.22;;;15.19;68.32
45793;BME280;31495;42.740;22.908;2022-08-03T02:45:25;93179.69;;;15.04;68.10
45793;BME280;31495;42.740;22.908;2022-08-03T02:46:30;93208.59;;;15.19;68.17
45793;BME280;31495;42.740;22.908;2022-08-03T02:47:31;93180.09;;;14.96;68.01
45793;BME280;31495;42.740;22.908;2022-08-03T02:48:35;93184.09;;;15.03;68.30
45793;BME280;31495;42.740;22.908;2022-08-03T02:49:37;93207.34;;;15.22;68.09
45793;BME280;31495;42.740;22.908;2022-08-03T02:50:38;93208.13;;;15.22;68.49
45793;BME280;31495;42.740;22.908;2022-08-03T02:51:39;93205.91;;;15.14;68.46
45793;BME280;31495;42.740;22.908;2022-08-03T02:52:40;93211.19;;;15.02;68.84
45793;BME280;31495;42.740;22.908;2022-08-03T02:53:41;93202.41;;;14.92;69.18
45793;BME280;31495;42.740;22.908;2022-08-03T02:54:43;93179.16;;;14.73;69.43
45793;BME280;31495;42.740;22.908;2022-08-03T02:55:46;93189.66;;;14.78;69.22
45793;BME280;31495;42.740;22.908;2022-08-03T02:56:47;93189.13;;;14.76;69.18
45793;BME280;31495;42.740;22.908;2022-08-03T02:57:47;93201.84;;;14.89;68.85
45793;BME280;31495;42.740;22.908;2022-08-03T02:58:48;93185.97;;;14.74;69.17
45793;BME280;31495;42.740;22.908;2022-08-03T02:59:49;93215.88;;;14.88;69.20
45793;BME280;31495;42.740;22.908;2022-08-03T03:00:50;93210.91;;;14.87;69.52
45793;BME280;31495;42.740;22.908;2022-08-03T03:01:51;93209.66;;;14.89;69.37
45793;BME280;31495;42.740;22.908;2022-08-03T03:02:53;93173.56;;;14.64;68.69
45793;BME280;31495;42.740;22.908;2022-08-03T03:03:55;93218.97;;;14.85;68.72
45793;BME280;31495;42.740;22.908;2022-08-03T03:04:55;93216.03;;;14.82;68.98
45793;BME280;31495;42.740;22.908;2022-08-03T03:05:55;93207.97;;;14.66;69.35
45793;BME280;31495;42.740;22.908;2022-08-03T03:06:57;93214.50;;;14.69;69.46
45793;BME280;31495;42.740;22.908;2022-08-03T03:07:57;93187.63;;;14.51;69.31
45793;BME280;31495;42.740;22.908;2022-08-03T03:08:57;93216.66;;;14.72;69.57
45793;BME280;31495;42.740;22.908;2022-08-03T03:09:57;93221.63;;;14.74;69.56
45793;BME280;31495;42.740;22.908;2022-08-03T03:10:59;93213.72;;;14.68;69.42
45793;BME280;31495;42.740;22.908;2022-08-03T03:11:59;93178.50;;;14.37;69.92
45793;BME280;31495;42.740;22.908;2022-08-03T03:13:00;93219.84;;;14.62;70.13
45793;BME280;31495;42.740;22.908;2022-08-03T03:14:01;93173.28;;;14.37;70.25
45793;BME280;31495;42.740;22.908;2022-08-03T03:15:02;93206.38;;;14.53;70.05
45793;BME280;31495;42.740;22.908;2022-08-03T03:16:03;93185.25;;;14.50;69.96
45793;BME280;31495;42.740;22.908;2022-08-03T03:17:06;93194.97;;;14.55;70.08
45793;BME280;31495;42.740;22.908;2022-08-03T03:18:06;93177.66;;;14.48;69.83
45793;BME280;31495;42.740;22.908;2022-08-03T03:19:09;93201.84;;;14.61;69.79
45793;BME280;31495;42.740;22.908;2022-08-03T03:20:10;93185.09;;;14.57;69.65
45793;BME280;31495;42.740;22.908;2022-08-03T03:21:10;93211.88;;;14.81;68.96
45793;BME280;31495;42.740;22.908;2022-08-03T03:22:12;93173.91;;;14.56;68.96
45793;BME280;31495;42.740;22.908;2022-08-03T03:23:13;93185.78;;;14.64;69.09
45793;BME280;31495;42.740;22.908;2022-08-03T03:24:13;93195.94;;;14.65;69.37
45793;BME280;31495;42.740;22.908;2022-08-03T03:25:14;93215.41;;;14.75;68.99
45793;BME280;31495;42.740;22.908;2022-08-03T03:26:15;93213.03;;;14.73;68.93
45793;BME280;31495;42.740;22.908;2022-08-03T03:27:15;93189.28;;;14.58;68.87
45793;BME280;31495;42.740;22.908;2022-08-03T03:28:15;93220.38;;;14.76;69.00
45793;BME280;31495;42.740;22.908;2022-08-03T03:29:15;93214.84;;;14.73;68.71
45793;BME280;31495;42.740;22.908;2022-08-03T03:30:15;93200.06;;;14.61;68.57
45793;BME280;31495;42.740;22.908;2022-08-03T03:31:15;93179.09;;;14.56;68.26
45793;BME280;31495;42.740;22.908;2022-08-03T03:32:15;93204.19;;;14.74;68.02
45793;BME280;31495;42.740;22.908;2022-08-03T03:33:14;93224.09;;;14.80;68.00
45793;BME280;31495;42.740;22.908;2022-08-03T03:34:14;93197.78;;;14.65;67.83
45793;BME280;31495;42.740;22.908;2022-08-03T03:35:14;93202.06;;;14.71;68.01
45793;BME280;31495;42.740;22.908;2022-08-03T03:36:15;93223.84;;;14.82;68.01
45793;BME280;31495;42.740;22.908;2022-08-03T03:37:14;93202.88;;;14.60;68.49
45793;BME280;31495;42.740;22.908;2022-08-03T03:38:13;93218.94;;;14.68;68.60
45793;BME280;31495;42.740;22.908;2022-08-03T03:39:13;93199.81;;;14.51;68.85
45793;BME280;31495;42.740;22.908;2022-08-03T03:40:13;93204.47;;;14.49;68.92
45793;BME280;31495;42.740;22.908;2022-08-03T03:41:12;93188.75;;;14.44;69.14
45793;BME280;31495;42.740;22.908;2022-08-03T03:42:12;93221.44;;;14.63;69.24
45793;BME280;31495;42.740;22.908;2022-08-03T03:43:12;93206.84;;;14.50;69.42
45793;BME280;31495;42.740;22.908;2022-08-03T03:44:11;93210.91;;;14.58;69.32
45793;BME280;31495;42.740;22.908;2022-08-03T03:45:11;93219.84;;;14.62;69.24
45793;BME280;31495;42.740;22.908;2022-08-03T03:46:11;93212.38;;;14.54;69.57
45793;BME280;31495;42.740;22.908;2022-08-03T03:47:12;93201.22;;;14.42;69.52
45793;BME280;31495;42.740;22.908;2022-08-03T03:48:11;93206.19;;;14.43;69.46
45793;BME280;31495;42.740;22.908;2022-08-03T03:49:12;93227.44;;;14.52;69.88
45793;BME280;31495;42.740;22.908;2022-08-03T03:50:14;93215.03;;;14.42;69.48
45793;BME280;31495;42.740;22.908;2022-08-03T03:51:14;93192.47;;;14.19;70.48
45793;BME280;31495;42.740;22.908;2022-08-03T03:52:15;93196.44;;;14.22;70.68
45793;BME280;31495;42.740;22.908;2022-08-03T03:53:14;93194.28;;;14.19;71.03
45793;BME280;31495;42.740;22.908;2022-08-03T03:54:14;93194.84;;;14.21;70.89
45793;BME280;31495;42.740;22.908;2022-08-03T03:55:16;93226.09;;;14.49;70.72
45793;BME280;31495;42.740;22.908;2022-08-03T03:56:16;93190.38;;;14.33;70.59
45793;BME280;31495;42.740;22.908;2022-08-03T03:57:16;93198.31;;;14.38;70.69
45793;BME280;31495;42.740;22.908;2022-08-03T03:58:15;93222.91;;;14.59;70.35
45793;BME280;31495;42.740;22.908;2022-08-03T03:59:15;93219.72;;;14.57;70.42
45793;BME280;31495;42.740;22.908;2022-08-03T04:00:16;93225.97;;;14.68;69.78
45793;BME280;31495;42.740;22.908;2022-08-03T04:01:16;93191.22;;;14.50;69.66
45793;BME280;31495;42.740;22.908;2022-08-03T04:02:16;93224.44;;;14.72;69.61
45793;BME280;31495;42.740;22.908;2022-08-03T04:03:15;93203.88;;;14.59;69.75
45793;BME280;31495;42.740;22.908;2022-08-03T04:04:15;93176.22;;;14.41;69.82
45793;BME280;31495;42.740;22.908;2022-08-03T04:05:33;93200.31;;;14.48;69.99
45793;BME280;31495;42.740;22.908;2022-08-03T04:06:51;93200.53;;;14.46;70.13
45793;BME280;31495;42.740;22.908;2022-08-03T04:08:15;93228.00;;;14.66;70.02
45793;BME280;31495;42.740;22.908;2022-08-03T04:09:35;93201.72;;;14.56;70.04
45793;BME280;31495;42.740;22.908;2022-08-03T04:11:10;93209.19;;;14.64;70.03
45793;BME280;31495;42.740;22.908;2022-08-03T04:12:11;93210.34;;;14.68;69.96
45793;BME280;31495;42.740;22.908;2022-08-03T04:13:12;93227.72;;;14.79;69.79
45793;BME280;31495;42.740;22.908;2022-08-03T04:15:22;93214.94;;;14.78;69.92
45793;BME280;31495;42.740;22.908;2022-08-03T04:16:26;93222.16;;;14.87;69.71
45793;BME280;31495;42.740;22.908;2022-08-03T04:17:27;93212.50;;;14.88;69.80
45793;BME280;31495;42.740;22.908;2022-08-03T04:18:30;93212.50;;;14.88;69.74
45793;BME280;31495;42.740;22.908;2022-08-03T04:20:04;93223.56;;;14.95;69.66
45793;BME280;31495;42.740;22.908;2022-08-03T04:20:59;93225.69;;;14.98;69.48
45793;BME280;31495;42.740;22.908;2022-08-03T04:22:05;93188.31;;;14.76;69.62
45793;BME280;31495;42.740;22.908;2022-08-03T04:23:06;93208.97;;;14.94;69.46
45793;BME280;31495;42.740;22.908;2022-08-03T04:24:08;93205.00;;;14.92;69.70
45793;BME280;31495;42.740;22.908;2022-08-03T04:25:10;93183.69;;;14.78;69.61
45793;BME280;31495;42.740;22.908;2022-08-03T04:26:18;93209.06;;;14.99;69.54
45793;BME280;31495;42.740;22.908;2022-08-03T04:27:25;93231.59;;;15.22;69.45
45793;BME280;31495;42.740;22.908;2022-08-03T04:28:26;93208.13;;;15.05;69.47
45793;BME280;31495;42.740;22.908;2022-08-03T04:29:28;93209.94;;;15.22;69.07
45793;BME280;31495;42.740;22.908;2022-08-03T04:30:29;93211.50;;;15.23;69.02
45793;BME280;31495;42.740;22.908;2022-08-03T04:31:30;93211.19;;;15.19;68.89
45793;BME280;31495;42.740;22.908;2022-08-03T04:32:30;93237.75;;;15.33;69.07
45793;BME280;31495;42.740;22.908;2022-08-03T04:33:32;93193.81;;;15.08;68.89
45793;BME280;31495;42.740;22.908;2022-08-03T04:34:32;93209.63;;;15.18;68.78
45793;BME280;31495;42.740;22.908;2022-08-03T04:35:32;93208.03;;;15.17;68.92
45793;BME280;31495;42.740;22.908;2022-08-03T04:36:37;93224.16;;;15.31;69.18
45793;BME280;31495;42.740;22.908;2022-08-03T04:37:40;93218.47;;;15.34;69.17
45793;BME280;31495;42.740;22.908;2022-08-03T04:39:04;93244.22;;;15.48;68.72
45793;BME280;31495;42.740;22.908;2022-08-03T04:40:08;93219.03;;;15.36;68.74
45793;BME280;31495;42.740;22.908;2022-08-03T04:41:09;93243.75;;;15.51;69.02
45793;BME280;31495;42.740;22.908;2022-08-03T04:42:10;93246.69;;;15.54;69.02
45793;BME280;31495;42.740;22.908;2022-08-03T04:43:12;93228.19;;;15.39;68.51
45793;BME280;31495;42.740;22.908;2022-08-03T04:44:14;93220.16;;;15.40;68.94
45793;BME280;31495;42.740;22.908;2022-08-03T04:45:15;93250.94;;;15.60;69.01
45793;BME280;31495;42.740;22.908;2022-08-03T04:46:16;93243.94;;;15.61;69.10
45793;BME280;31495;42.740;22.908;2022-08-03T04:47:17;93249.78;;;15.68;69.24
45793;BME280;31495;42.740;22.908;2022-08-03T04:48:17;93237.38;;;15.58;69.16
45793;BME280;31495;42.740;22.908;2022-08-03T04:49:19;93256.06;;;15.72;69.11
45793;BME280;31495;42.740;22.908;2022-08-03T04:50:20;93250.38;;;15.75;69.30
45793;BME280;31495;42.740;22.908;2022-08-03T04:51:20;93249.72;;;15.80;68.73
45793;BME280;31495;42.740;22.908;2022-08-03T04:52:20;93251.00;;;15.77;69.35
45793;BME280;31495;42.740;22.908;2022-08-03T04:53:20;93256.75;;;15.79;69.31
45793;BME280;31495;42.740;22.908;2022-08-03T04:54:20;93228.97;;;15.73;69.30
45793;BME280;31495;42.740;22.908;2022-08-03T04:55:30;93217.53;;;15.74;69.13
45793;BME280;31495;42.740;22.908;2022-08-03T04:56:30;93219.94;;;15.76;69.20
45793;BME280;31495;42.740;22.908;2022-08-03T04:57:29;93237.53;;;15.86;69.24
45793;BME280;31495;42.740;22.908;2022-08-03T04:58:30;93224.50;;;15.86;69.14
45793;BME280;31495;42.740;22.908;2022-08-03T04:59:29;93220.78;;;15.82;69.38
45793;BME280;31495;42.740;22.908;2022-08-03T05:00:29;93238.22;;;15.98;69.28
45793;BME280;31495;42.740;22.908;2022-08-03T05:01:29;93215.63;;;15.87;69.21
45793;BME280;31495;42.740;22.908;2022-08-03T05:02:29;93242.78;;;16.08;69.69
45793;BME280;31495;42.740;22.908;2022-08-03T05:03:29;93221.25;;;15.95;69.67
45793;BME280;31495;42.740;22.908;2022-08-03T05:04:30;93241.28;;;16.12;69.82
45793;BME280;31495;42.740;22.908;2022-08-03T05:05:29;93236.84;;;16.12;69.60
45793;BME280;31495;42.740;22.908;2022-08-03T05:06:28;93240.31;;;16.18;69.44
45793;BME280;31495;42.740;22.908;2022-08-03T05:07:28;93241.66;;;16.21;69.56
45793;BME280;31495;42.740;22.908;2022-08-03T05:08:28;93232.47;;;16.18;69.58
45793;BME280;31495;42.740;22.908;2022-08-03T05:09:27;93214.63;;;16.10;69.88
45793;BME280;31495;42.740;22.908;2022-08-03T05:10:27;93220.94;;;16.14;69.57
45793;BME280;31495;42.740;22.908;2022-08-03T05:11:26;93239.94;;;16.31;69.49
45793;BME280;31495;42.740;22.908;2022-08-03T05:12:25;93256.31;;;16.44;69.67
45793;BME280;31495;42.740;22.908;2022-08-03T05:13:25;93248.78;;;16.47;69.76
45793;BME280;31495;42.740;22.908;2022-08-03T05:14:24;93212.53;;;16.29;69.52
45793;BME280;31495;42.740;22.908;2022-08-03T05:15:24;93204.44;;;16.30;69.79
45793;BME280;31495;42.740;22.908;2022-08-03T05:16:23;93209.97;;;16.34;69.41
45793;BME280;31495;42.740;22.908;2022-08-03T05:17:24;93208.72;;;16.37;69.79
45793;BME280;31495;42.740;22.908;2022-08-03T05:18:23;93225.56;;;16.51;69.87
45793;BME280;31495;42.740;22.908;2022-08-03T05:19:23;93240.31;;;16.62;69.43
45793;BME280;31495;42.740;22.908;2022-08-03T05:20:22;93205.09;;;16.43;69.45
45793;BME280;31495;42.740;22.908;2022-08-03T05:21:22;93254.09;;;16.80;69.70
45793;BME280;31495;42.740;22.908;2022-08-03T05:22:22;93201.28;;;16.50;69.66
45793;BME280;31495;42.740;22.908;2022-08-03T05:23:21;93229.72;;;16.74;69.94
45793;BME280;31495;42.740;22.908;2022-08-03T05:24:20;93225.25;;;16.69;69.63
45793;BME280;31495;42.740;22.908;2022-08-03T05:25:20;93250.59;;;16.91;69.76
45793;BME280;31495;42.740;22.908;2022-08-03T05:26:19;93243.59;;;16.97;70.26
45793;BME280;31495;42.740;22.908;2022-08-03T05:27:19;93253.84;;;17.03;69.90
45793;BME280;31495;42.740;22.908;2022-08-03T05:28:18;93223.94;;;16.89;69.20
45793;BME280;31495;42.740;22.908;2022-08-03T05:29:18;93249.47;;;17.09;68.72
45793;BME280;31495;42.740;22.908;2022-08-03T05:30:18;93220.03;;;16.92;68.46
45793;BME280;31495;42.740;22.908;2022-08-03T05:31:18;93242.38;;;17.04;68.08
45793;BME280;31495;42.740;22.908;2022-08-03T05:32:17;93246.13;;;17.14;68.54
45793;BME280;31495;42.740;22.908;2022-08-03T05:33:17;93250.09;;;17.21;68.32
45793;BME280;31495;42.740;22.908;2022-08-03T05:34:17;93249.91;;;17.28;67.51
45793;BME280;31495;42.740;22.908;2022-08-03T05:35:16;93222.28;;;17.10;68.00